Eviapetrol I — SY5401 — position and weather

sailwx.info

Track history (hours):
 
Tides and Currents Weather Stations Pressure Air Temp Water Temp Dewpoint Dewpoint Depression Visibility Wind Speed Wind Dir Waves Ship Positions

Eviapetrol I

Last reported at 2017-Jul-24 22:31 UTC. Time now 2017-Jul-24 22:33 UTC.
Position N 38°02' E 023°36'.

Length 75 m; draft 5 m.

Type: Tanker. MMSI: 240285000.

Date/timePositionNaut miles runAvg speedWind from/ knotsBaromVisibWave heightAir tempDewpointWater temp
2017-Jul-24 22:31N 38°02' E 023°36'4 7.6
2017-Jul-24 22:01N 38°01' E 023°31'510.1
2017-Jul-24 21:31N 37°59' E 023°25'4 7.9
2017-Jul-24 21:00N 37°55' E 023°23'4 7.8
2017-Jul-24 20:31N 37°52' E 023°26'510.4
2017-Jul-24 20:01N 37°51' E 023°32'510.1
2017-Jul-24 19:31N 37°51' E 023°38'510.4
2017-Jul-24 19:01N 37°46' E 023°41'510.6
2017-Jul-24 18:31N 37°42' E 023°45'5 9.8
2017-Jul-24 18:01N 37°40' E 023°50'5 9.8
2017-Jul-24 17:31N 37°38' E 023°56'144 9.5
2017-Jul-24 02:28N 39°53' E 024°58'510.0
2017-Jul-24 01:59N 39°58' E 024°59'5 9.7
2017-Jul-24 01:29N 40°02' E 025°01'6 9.7
2017-Jul-24 00:51N 40°08' E 025°05'510.1
2017-Jul-24 00:22N 40°12' E 025°09'410.5
2017-Jul-24 00:00N 40°15' E 025°12'510.8
2017-Jul-23 23:30N 40°19' E 025°16'810.4
2017-Jul-23 22:43N 40°26' E 025°23'310.8
2017-Jul-23 22:24N 40°29' E 025°25'410.4
2017-Jul-23 22:00N 40°31' E 025°29'6 9.6
2017-Jul-23 21:23N 40°36' E 025°34'16 9.2
2017-Jul-23 19:36N 40°47' E 025°50'1 9.6
2017-Jul-23 19:27N 40°48' E 025°52'3 1.7
2017-Jul-23 17:24N 40°50' E 025°55'0 0.0
2017-Jul-23 07:57N 40°50' E 025°55'0 0.0
2017-Jul-23 07:27N 40°50' E 025°55'0 0.0
2017-Jul-23 06:09N 40°50' E 025°55'0 0.0
2017-Jul-23 05:57N 40°50' E 025°55'0 0.0
2017-Jul-23 04:42N 40°50' E 025°55'0 0.5
2017-Jul-23 04:26N 40°50' E 025°55'3 6.4
2017-Jul-23 04:00N 40°48' E 025°52'5 9.9
2017-Jul-23 03:30N 40°45' E 025°48'510.2
2017-Jul-23 03:00N 40°41' E 025°43'510.0
2017-Jul-23 02:30N 40°38' E 025°37'5 9.7
2017-Jul-23 02:00N 40°35' E 025°33'5 9.8
2017-Jul-23 01:30N 40°32' E 025°28'5 9.5
2017-Jul-23 01:00N 40°28' E 025°24'5 9.2
2017-Jul-23 00:30N 40°25' E 025°20'5 9.2
2017-Jul-23 00:00N 40°21' E 025°16'5 9.3
2017-Jul-22 23:30N 40°17' E 025°13'4 9.1
2017-Jul-22 23:00N 40°13' E 025°10'5 9.4
2017-Jul-22 22:30N 40°09' E 025°07'5 9.8
2017-Jul-22 21:58N 40°04' E 025°04'5 9.9
2017-Jul-22 21:26N 39°60' E 025°01'5 9.6
2017-Jul-22 20:53N 39°55' E 024°57'13 9.6
2017-Jul-22 19:33N 39°43' E 024°51'5 9.6
2017-Jul-22 19:03N 39°39' E 024°49'125 7.5
2017-Jul-22 02:23N 37°38' E 024°08'6 8.9
2017-Jul-22 01:45N 37°37' E 024°01'4 9.6
2017-Jul-22 01:22N 37°38' E 023°56'410.1
2017-Jul-22 01:00N 37°38' E 023°52'510.4
2017-Jul-22 00:30N 37°39' E 023°45'5 9.3
2017-Jul-22 00:00N 37°42' E 023°41'510.1
2017-Jul-21 23:30N 37°47' E 023°38'5 9.2
2017-Jul-21 23:00N 37°50' E 023°34'5 9.7
2017-Jul-21 22:30N 37°51' E 023°28'5 9.6
2017-Jul-21 22:00N 37°53' E 023°23'4 8.5
2017-Jul-21 21:30N 37°57' E 023°25'3 7.0
2017-Jul-21 21:00N 38°00' E 023°27'5 9.5
2017-Jul-21 20:30N 38°01' E 023°33'2 4.2
2017-Jul-21 20:00N 38°02' E 023°36'0 0.2
2017-Jul-21 19:30N 38°02' E 023°36'0 0.0
2017-Jul-21 19:00N 38°02' E 023°36'0 0.0
2017-Jul-21 18:30N 38°02' E 023°36'0 0.0
2017-Jul-21 18:00N 38°02' E 023°36'0 0.0
2017-Jul-21 17:30N 38°02' E 023°36'0 0.0
2017-Jul-21 17:00N 38°02' E 023°36'0 0.0
2017-Jul-21 16:30N 38°02' E 023°36'0 0.0
2017-Jul-21 16:00N 38°02' E 023°36'0 0.0
2017-Jul-21 15:30N 38°02' E 023°36'0 0.0
2017-Jul-21 15:00N 38°02' E 023°36'0 0.0
2017-Jul-21 14:30N 38°02' E 023°36'0 0.0
2017-Jul-21 14:00N 38°02' E 023°36'0 0.0
2017-Jul-21 13:30N 38°02' E 023°36'0 0.0
2017-Jul-21 13:00N 38°02' E 023°36'0 0.0
2017-Jul-21 12:27N 38°02' E 023°36'0 0.0
2017-Jul-21 12:00N 38°02' E 023°36'0 0.0
2017-Jul-21 11:27N 38°02' E 023°36'0 0.0
2017-Jul-21 11:00N 38°02' E 023°36'0 0.0
2017-Jul-21 10:30N 38°02' E 023°36'0 0.0
2017-Jul-21 10:00N 38°02' E 023°36'0 0.0
2017-Jul-21 09:30N 38°02' E 023°36'0 0.0
2017-Jul-21 09:00N 38°02' E 023°36'0 0.0
2017-Jul-21 08:30N 38°02' E 023°36'0 0.0
2017-Jul-21 08:00N 38°02' E 023°36'0 0.0
2017-Jul-21 07:30N 38°02' E 023°36'0 0.0
2017-Jul-21 07:00N 38°02' E 023°36'1 1.7
2017-Jul-21 06:30N 38°01' E 023°35'4 7.8
2017-Jul-21 06:00N 37°57' E 023°33'4 7.2
2017-Jul-21 05:30N 37°55' E 023°36'5 9.6
2017-Jul-21 05:00N 37°51' E 023°39'5 9.9
2017-Jul-21 04:30N 37°46' E 023°42'5 9.6
2017-Jul-21 04:00N 37°42' E 023°45'5 9.3
2017-Jul-21 03:25N 37°37' E 023°47'  
2017-Jul-16 15:24N 37°35' E 023°47'4 9.9
2017-Jul-16 15:00N 37°38' E 023°44'5 9.9
2017-Jul-16 14:30N 37°42' E 023°41'5 9.6
2017-Jul-16 14:00N 37°47' E 023°39'5 9.6
2017-Jul-16 13:30N 37°51' E 023°36'5 9.7
2017-Jul-16 13:00N 37°56' E 023°36'4 7.9
2017-Jul-16 12:30N 37°59' E 023°33'3 5.2
2017-Jul-16 12:00N 38°01' E 023°35'2 5.1
2017-Jul-16 11:30N 38°01' E 023°32'1 2.6
2017-Jul-16 10:58N 38°02' E 023°30'0 0.0
2017-Jul-16 10:28N 38°02' E 023°30'0 0.0
2017-Jul-16 09:58N 38°02' E 023°30'0 0.0
2017-Jul-16 09:28N 38°02' E 023°30'0 0.0
2017-Jul-16 08:58N 38°02' E 023°30'0 0.0
2017-Jul-16 08:28N 38°02' E 023°30'0 0.0
2017-Jul-16 07:58N 38°02' E 023°30'0 0.0
2017-Jul-16 07:28N 38°02' E 023°30'0 0.0
2017-Jul-16 06:58N 38°02' E 023°30'0 0.0
2017-Jul-16 06:28N 38°02' E 023°30'0 0.0
2017-Jul-16 05:58N 38°02' E 023°30'0 0.0
2017-Jul-16 05:28N 38°02' E 023°30'0 0.0
2017-Jul-16 04:58N 38°02' E 023°30'0 0.0
2017-Jul-16 04:28N 38°02' E 023°30'0 0.0
2017-Jul-16 03:58N 38°02' E 023°30'0 0.0
2017-Jul-16 03:28N 38°02' E 023°30'0 0.0
2017-Jul-16 02:58N 38°02' E 023°30'0 0.0
2017-Jul-16 02:28N 38°02' E 023°30'0 0.0
2017-Jul-16 01:58N 38°02' E 023°30'0 0.0
2017-Jul-16 01:28N 38°02' E 023°30'0 0.0
2017-Jul-16 00:58N 38°02' E 023°30'0 0.0
2017-Jul-16 00:28N 38°02' E 023°30'0 0.0
2017-Jul-15 23:58N 38°02' E 023°30'0 0.0
2017-Jul-15 23:25N 38°02' E 023°30'0 0.0
2017-Jul-15 22:58N 38°02' E 023°30'0 0.0
2017-Jul-15 22:28N 38°02' E 023°30'0 0.0
2017-Jul-15 21:58N 38°02' E 023°30'0 0.0
2017-Jul-15 21:28N 38°02' E 023°30'0 0.0
2017-Jul-15 20:58N 38°02' E 023°30'0 0.0
2017-Jul-15 20:28N 38°02' E 023°30'0 0.0
2017-Jul-15 19:58N 38°02' E 023°30'0 0.0
2017-Jul-15 19:28N 38°02' E 023°30'0 0.0
2017-Jul-15 18:58N 38°02' E 023°30'0 0.0
2017-Jul-15 18:28N 38°02' E 023°30'0 0.0
2017-Jul-15 17:58N 38°02' E 023°30'0 0.0
2017-Jul-15 17:28N 38°02' E 023°30'0 0.0
2017-Jul-15 16:58N 38°02' E 023°30'0 0.0
2017-Jul-15 16:28N 38°02' E 023°30'0 0.0
2017-Jul-15 15:58N 38°02' E 023°30'0 0.0
2017-Jul-15 15:28N 38°02' E 023°30'0 0.6
2017-Jul-15 15:00N 38°02' E 023°30'1 1.2
2017-Jul-15 13:59N 38°02' E 023°32'0 0.1
2017-Jul-15 13:29N 38°02' E 023°32'0 0.0
2017-Jul-15 12:59N 38°02' E 023°32'0 0.0
2017-Jul-15 12:29N 38°02' E 023°32'0 0.2
2017-Jul-15 11:59N 38°02' E 023°32'0 0.1
2017-Jul-15 11:29N 38°02' E 023°32'0 0.0
2017-Jul-15 10:59N 38°02' E 023°32'0 0.0
2017-Jul-15 10:29N 38°02' E 023°32'0 0.0
2017-Jul-15 09:59N 38°02' E 023°32'0 0.0
2017-Jul-15 09:29N 38°02' E 023°32'0 0.0
2017-Jul-15 08:59N 38°02' E 023°32'0 0.0
2017-Jul-15 08:29N 38°02' E 023°32'0 0.0
2017-Jul-15 07:59N 38°02' E 023°32'0 0.0
2017-Jul-15 07:29N 38°02' E 023°32'0 0.0
2017-Jul-15 06:59N 38°02' E 023°32'0 0.0
2017-Jul-15 06:29N 38°02' E 023°32'0 0.0
2017-Jul-15 05:59N 38°02' E 023°32'0 0.0
2017-Jul-15 05:29N 38°02' E 023°32'0 0.0
2017-Jul-15 04:59N 38°02' E 023°32'0 0.0
2017-Jul-15 04:29N 38°02' E 023°32'0 0.0
2017-Jul-15 03:59N 38°02' E 023°32'0 0.0
2017-Jul-15 03:29N 38°02' E 023°32'0 0.0
2017-Jul-15 02:59N 38°02' E 023°32'0 0.0
2017-Jul-15 02:29N 38°02' E 023°32'0 0.0
2017-Jul-15 01:59N 38°02' E 023°32'0 0.0
2017-Jul-15 01:29N 38°02' E 023°32'0 0.0
2017-Jul-15 00:59N 38°02' E 023°32'0 0.0
2017-Jul-15 00:29N 38°02' E 023°32'0 0.0
2017-Jul-14 23:59N 38°02' E 023°32'0 0.1
2017-Jul-14 23:29N 38°02' E 023°32'1 1.9
2017-Jul-14 23:00N 38°01' E 023°31'  
Track history (hours):
 
Tides and Currents Weather Stations Pressure Air Temp Water Temp Dewpoint Dewpoint Depression Visibility Wind Speed Wind Dir Waves Ship Positions

Eviapetrol I

Last reported at 2017-Jul-24 22:31 UTC. Time now 2017-Jul-24 22:33 UTC.
Position N 38°02' E 023°36'.

Length 75 m; draft 5 m.

Type: Tanker. MMSI: 240285000.

Date/timePositionNaut miles runAvg speedWind from/ knotsBaromVisibWave heightAir tempDewpointWater temp
2017-Jul-24 22:31N 38°02' E 023°36'4 7.6
2017-Jul-24 22:01N 38°01' E 023°31'510.1
2017-Jul-24 21:31N 37°59' E 023°25'4 7.9
2017-Jul-24 21:00N 37°55' E 023°23'4 7.8
2017-Jul-24 20:31N 37°52' E 023°26'510.4
2017-Jul-24 20:01N 37°51' E 023°32'510.1
2017-Jul-24 19:31N 37°51' E 023°38'510.4
2017-Jul-24 19:01N 37°46' E 023°41'510.6
2017-Jul-24 18:31N 37°42' E 023°45'5 9.8
2017-Jul-24 18:01N 37°40' E 023°50'5 9.8
2017-Jul-24 17:31N 37°38' E 023°56'144 9.5
2017-Jul-24 02:28N 39°53' E 024°58'510.0
2017-Jul-24 01:59N 39°58' E 024°59'5 9.7
2017-Jul-24 01:29N 40°02' E 025°01'6 9.7
2017-Jul-24 00:51N 40°08' E 025°05'510.1
2017-Jul-24 00:22N 40°12' E 025°09'410.5
2017-Jul-24 00:00N 40°15' E 025°12'510.8
2017-Jul-23 23:30N 40°19' E 025°16'810.4
2017-Jul-23 22:43N 40°26' E 025°23'310.8
2017-Jul-23 22:24N 40°29' E 025°25'410.4
2017-Jul-23 22:00N 40°31' E 025°29'6 9.6
2017-Jul-23 21:23N 40°36' E 025°34'16 9.2
2017-Jul-23 19:36N 40°47' E 025°50'1 9.6
2017-Jul-23 19:27N 40°48' E 025°52'3 1.7
2017-Jul-23 17:24N 40°50' E 025°55'0 0.0
2017-Jul-23 07:57N 40°50' E 025°55'0 0.0
2017-Jul-23 07:27N 40°50' E 025°55'0 0.0
2017-Jul-23 06:09N 40°50' E 025°55'0 0.0
2017-Jul-23 05:57N 40°50' E 025°55'0 0.0
2017-Jul-23 04:42N 40°50' E 025°55'0 0.5
2017-Jul-23 04:26N 40°50' E 025°55'3 6.4
2017-Jul-23 04:00N 40°48' E 025°52'5 9.9
2017-Jul-23 03:30N 40°45' E 025°48'510.2
2017-Jul-23 03:00N 40°41' E 025°43'510.0
2017-Jul-23 02:30N 40°38' E 025°37'5 9.7
2017-Jul-23 02:00N 40°35' E 025°33'5 9.8
2017-Jul-23 01:30N 40°32' E 025°28'5 9.5
2017-Jul-23 01:00N 40°28' E 025°24'5 9.2
2017-Jul-23 00:30N 40°25' E 025°20'5 9.2
2017-Jul-23 00:00N 40°21' E 025°16'5 9.3
2017-Jul-22 23:30N 40°17' E 025°13'4 9.1
2017-Jul-22 23:00N 40°13' E 025°10'5 9.4
2017-Jul-22 22:30N 40°09' E 025°07'5 9.8
2017-Jul-22 21:58N 40°04' E 025°04'5 9.9
2017-Jul-22 21:26N 39°60' E 025°01'5 9.6
2017-Jul-22 20:53N 39°55' E 024°57'13 9.6
2017-Jul-22 19:33N 39°43' E 024°51'5 9.6
2017-Jul-22 19:03N 39°39' E 024°49'125 7.5
2017-Jul-22 02:23N 37°38' E 024°08'6 8.9
2017-Jul-22 01:45N 37°37' E 024°01'4 9.6
2017-Jul-22 01:22N 37°38' E 023°56'410.1
2017-Jul-22 01:00N 37°38' E 023°52'510.4
2017-Jul-22 00:30N 37°39' E 023°45'5 9.3
2017-Jul-22 00:00N 37°42' E 023°41'510.1
2017-Jul-21 23:30N 37°47' E 023°38'5 9.2
2017-Jul-21 23:00N 37°50' E 023°34'5 9.7
2017-Jul-21 22:30N 37°51' E 023°28'5 9.6
2017-Jul-21 22:00N 37°53' E 023°23'4 8.5
2017-Jul-21 21:30N 37°57' E 023°25'3 7.0
2017-Jul-21 21:00N 38°00' E 023°27'5 9.5
2017-Jul-21 20:30N 38°01' E 023°33'2 4.2
2017-Jul-21 20:00N 38°02' E 023°36'0 0.2
2017-Jul-21 19:30N 38°02' E 023°36'0 0.0
2017-Jul-21 19:00N 38°02' E 023°36'0 0.0
2017-Jul-21 18:30N 38°02' E 023°36'0 0.0
2017-Jul-21 18:00N 38°02' E 023°36'0 0.0
2017-Jul-21 17:30N 38°02' E 023°36'0 0.0
2017-Jul-21 17:00N 38°02' E 023°36'0 0.0
2017-Jul-21 16:30N 38°02' E 023°36'0 0.0
2017-Jul-21 16:00N 38°02' E 023°36'0 0.0
2017-Jul-21 15:30N 38°02' E 023°36'0 0.0
2017-Jul-21 15:00N 38°02' E 023°36'0 0.0
2017-Jul-21 14:30N 38°02' E 023°36'0 0.0
2017-Jul-21 14:00N 38°02' E 023°36'0 0.0
2017-Jul-21 13:30N 38°02' E 023°36'0 0.0
2017-Jul-21 13:00N 38°02' E 023°36'0 0.0
2017-Jul-21 12:27N 38°02' E 023°36'0 0.0
2017-Jul-21 12:00N 38°02' E 023°36'0 0.0
2017-Jul-21 11:27N 38°02' E 023°36'0 0.0
2017-Jul-21 11:00N 38°02' E 023°36'0 0.0
2017-Jul-21 10:30N 38°02' E 023°36'0 0.0
2017-Jul-21 10:00N 38°02' E 023°36'0 0.0
2017-Jul-21 09:30N 38°02' E 023°36'0 0.0
2017-Jul-21 09:00N 38°02' E 023°36'0 0.0
2017-Jul-21 08:30N 38°02' E 023°36'0 0.0
2017-Jul-21 08:00N 38°02' E 023°36'0 0.0
2017-Jul-21 07:30N 38°02' E 023°36'0 0.0
2017-Jul-21 07:00N 38°02' E 023°36'1 1.7
2017-Jul-21 06:30N 38°01' E 023°35'4 7.8
2017-Jul-21 06:00N 37°57' E 023°33'4 7.2
2017-Jul-21 05:30N 37°55' E 023°36'5 9.6
2017-Jul-21 05:00N 37°51' E 023°39'5 9.9
2017-Jul-21 04:30N 37°46' E 023°42'5 9.6
2017-Jul-21 04:00N 37°42' E 023°45'5 9.3
2017-Jul-21 03:25N 37°37' E 023°47'  
2017-Jul-16 15:24N 37°35' E 023°47'4 9.9
2017-Jul-16 15:00N 37°38' E 023°44'5 9.9
2017-Jul-16 14:30N 37°42' E 023°41'5 9.6
2017-Jul-16 14:00N 37°47' E 023°39'5 9.6
2017-Jul-16 13:30N 37°51' E 023°36'5 9.7
2017-Jul-16 13:00N 37°56' E 023°36'4 7.9
2017-Jul-16 12:30N 37°59' E 023°33'3 5.2
2017-Jul-16 12:00N 38°01' E 023°35'2 5.1
2017-Jul-16 11:30N 38°01' E 023°32'1 2.6
2017-Jul-16 10:58N 38°02' E 023°30'0 0.0
2017-Jul-16 10:28N 38°02' E 023°30'0 0.0
2017-Jul-16 09:58N 38°02' E 023°30'0 0.0
2017-Jul-16 09:28N 38°02' E 023°30'0 0.0
2017-Jul-16 08:58N 38°02' E 023°30'0 0.0
2017-Jul-16 08:28N 38°02' E 023°30'0 0.0
2017-Jul-16 07:58N 38°02' E 023°30'0 0.0
2017-Jul-16 07:28N 38°02' E 023°30'0 0.0
2017-Jul-16 06:58N 38°02' E 023°30'0 0.0
2017-Jul-16 06:28N 38°02' E 023°30'0 0.0
2017-Jul-16 05:58N 38°02' E 023°30'0 0.0
2017-Jul-16 05:28N 38°02' E 023°30'0 0.0
2017-Jul-16 04:58N 38°02' E 023°30'0 0.0
2017-Jul-16 04:28N 38°02' E 023°30'0 0.0
2017-Jul-16 03:58N 38°02' E 023°30'0 0.0
2017-Jul-16 03:28N 38°02' E 023°30'0 0.0
2017-Jul-16 02:58N 38°02' E 023°30'0 0.0
2017-Jul-16 02:28N 38°02' E 023°30'0 0.0
2017-Jul-16 01:58N 38°02' E 023°30'0 0.0
2017-Jul-16 01:28N 38°02' E 023°30'0 0.0
2017-Jul-16 00:58N 38°02' E 023°30'0 0.0
2017-Jul-16 00:28N 38°02' E 023°30'0 0.0
2017-Jul-15 23:58N 38°02' E 023°30'0 0.0
2017-Jul-15 23:25N 38°02' E 023°30'0 0.0
2017-Jul-15 22:58N 38°02' E 023°30'0 0.0
2017-Jul-15 22:28N 38°02' E 023°30'0 0.0
2017-Jul-15 21:58N 38°02' E 023°30'0 0.0
2017-Jul-15 21:28N 38°02' E 023°30'0 0.0
2017-Jul-15 20:58N 38°02' E 023°30'0 0.0
2017-Jul-15 20:28N 38°02' E 023°30'0 0.0
2017-Jul-15 19:58N 38°02' E 023°30'0 0.0
2017-Jul-15 19:28N 38°02' E 023°30'0 0.0
2017-Jul-15 18:58N 38°02' E 023°30'0 0.0
2017-Jul-15 18:28N 38°02' E 023°30'0 0.0
2017-Jul-15 17:58N 38°02' E 023°30'0 0.0
2017-Jul-15 17:28N 38°02' E 023°30'0 0.0
2017-Jul-15 16:58N 38°02' E 023°30'0 0.0
2017-Jul-15 16:28N 38°02' E 023°30'0 0.0
2017-Jul-15 15:58N 38°02' E 023°30'0 0.0
2017-Jul-15 15:28N 38°02' E 023°30'0 0.6
2017-Jul-15 15:00N 38°02' E 023°30'1 1.2
2017-Jul-15 13:59N 38°02' E 023°32'0 0.1
2017-Jul-15 13:29N 38°02' E 023°32'0 0.0
2017-Jul-15 12:59N 38°02' E 023°32'0 0.0
2017-Jul-15 12:29N 38°02' E 023°32'0 0.2
2017-Jul-15 11:59N 38°02' E 023°32'0 0.1
2017-Jul-15 11:29N 38°02' E 023°32'0 0.0
2017-Jul-15 10:59N 38°02' E 023°32'0 0.0
2017-Jul-15 10:29N 38°02' E 023°32'0 0.0
2017-Jul-15 09:59N 38°02' E 023°32'0 0.0
2017-Jul-15 09:29N 38°02' E 023°32'0 0.0
2017-Jul-15 08:59N 38°02' E 023°32'0 0.0
2017-Jul-15 08:29N 38°02' E 023°32'0 0.0
2017-Jul-15 07:59N 38°02' E 023°32'0 0.0
2017-Jul-15 07:29N 38°02' E 023°32'0 0.0
2017-Jul-15 06:59N 38°02' E 023°32'0 0.0
2017-Jul-15 06:29N 38°02' E 023°32'0 0.0
2017-Jul-15 05:59N 38°02' E 023°32'0 0.0
2017-Jul-15 05:29N 38°02' E 023°32'0 0.0
2017-Jul-15 04:59N 38°02' E 023°32'0 0.0
2017-Jul-15 04:29N 38°02' E 023°32'0 0.0
2017-Jul-15 03:59N 38°02' E 023°32'0 0.0
2017-Jul-15 03:29N 38°02' E 023°32'0 0.0
2017-Jul-15 02:59N 38°02' E 023°32'0 0.0
2017-Jul-15 02:29N 38°02' E 023°32'0 0.0
2017-Jul-15 01:59N 38°02' E 023°32'0 0.0
2017-Jul-15 01:29N 38°02' E 023°32'0 0.0
2017-Jul-15 00:59N 38°02' E 023°32'0 0.0
2017-Jul-15 00:29N 38°02' E 023°32'0 0.0
2017-Jul-14 23:59N 38°02' E 023°32'0 0.1
2017-Jul-14 23:29N 38°02' E 023°32'1 1.9
2017-Jul-14 23:00N 38°01' E 023°31'  

Dump ship's entire track history